Stations météo

réclame
Mon MeteoGroup
La Molina, Espagne (8117): Température de l'air & dewpoint: 12.01.2020 00:00:00 - 18.01.2020 00:00:00 (CET)La Molina, Espagne (8117): Vitesse du vent & gusts: 12.01.2020 00:00:00 - 18.01.2020 00:00:00 (CET)La Molina, Espagne (8117): Direction du vent: 12.01.2020 00:00:00 - 18.01.2020 00:00:00 (CET)La Molina, Espagne (8117): visibility: 12.01.2020 00:00:00 - 18.01.2020 00:00:00 (CET)La Molina, Espagne (8117): Ensoleillement: 12.01.2020 00:00:00 - 18.01.2020 00:00:00 (CET)La Molina, Espagne (8117): Quantités de précipitations: 12.01.2020 00:00:00 - 18.01.2020 00:00:00 (CET)
Date & Time tt [°C] td [°C] ff [km/h] ff [knt] fx [km/h] fx [knt] dd vv [km] sd [min] rr [mm]
18.01.2020 00:00:00 - - - - - - - - - -
17.01.2020 23:00:00 -2,6 -7,5 10 5 19 10 SW 3,1 0 0,0
17.01.2020 22:00:00 -2,5 -7,5 5 3 19 10 SE 12 0 0,0
17.01.2020 21:00:00 -3,1 -7,1 6 3 15 8 ESE 18 0 0,0
17.01.2020 20:00:00 -2,8 -6,7 5 3 16 8 E 20 0 0,0
17.01.2020 19:00:00 -2,7 -5,4 6 3 9 5 ESE 17 0 -
17.01.2020 18:00:00 -1,7 -5,7 4 2 23 12 S 20 0 0,0
17.01.2020 17:00:00 -0,6 -3,9 8 4 31 17 SW 20 0 1,6
17.01.2020 16:00:00 1,9 -3,9 11 6 32 18 N 20 36 0,0
17.01.2020 15:00:00 4,8 -4,5 13 7 27 15 WSW 20 31 0,0
17.01.2020 14:00:00 4,4 -2,7 12 6 31 17 WNW 20 35 0,0
17.01.2020 13:00:00 4,7 -3,3 14 8 32 17 WSW 20 44 -
17.01.2020 12:00:00 5,5 -5,7 10 6 34 18 WSW 20 59 0,0
17.01.2020 11:00:00 2,7 -0,3 4 2 10 5 E 20 35 0,0
17.01.2020 10:00:00 -0,6 -1,7 4 2 10 5 ESE 20 0 0,0
17.01.2020 09:00:00 -0,4 -2,2 4 2 12 7 ESE 20 0 0,0
17.01.2020 08:00:00 0,6 -1,7 9 5 19 10 ESE 20 0 0,0
17.01.2020 07:00:00 1,0 -1,2 4 2 13 7 E 20 0 -
17.01.2020 06:00:00 2,6 -1,7 15 8 47 26 W 20 0 0,0
17.01.2020 05:00:00 2,9 -1,2 17 9 45 24 WNW 20 0 0,0
17.01.2020 04:00:00 3,0 -1,2 15 8 46 25 NW 20 0 0,0
17.01.2020 03:00:00 3,5 -2,2 10 5 41 22 W 20 0 0,0
17.01.2020 02:00:00 3,7 -1,7 12 6 49 26 W 20 0 0,0
17.01.2020 01:00:00 3,9 -1,2 9 5 42 23 W 20 0 -
17.01.2020 00:00:00 3,7 -0,7 10 5 40 22 W 20 0 0,0
16.01.2020 23:00:00 1,9 -1,7 5 3 24 13 E 20 0 0,0
16.01.2020 22:00:00 0,3 -2,5 5 3 12 7 ESE 20 0 0,0
16.01.2020 21:00:00 0,5 -3,0 4 2 12 6 E 20 0 0,0
16.01.2020 20:00:00 1,0 -2,7 5 3 12 7 ESE 20 0 0,0
16.01.2020 19:00:00 2,2 -4,5 7 4 12 7 E 20 0 -
16.01.2020 18:00:00 1,5 -5,7 6 3 13 7 ESE 20 0 0,0
16.01.2020 17:00:00 2,2 -6,0 6 3 11 6 ESE 20 32 0,0
16.01.2020 16:00:00 7,1 -5,4 4 2 14 8 E 20 60 0,0
16.01.2020 15:00:00 6,3 -6,4 5 3 12 6 SE 20 60 0,0
16.01.2020 14:00:00 6,2 -5,7 4 2 13 7 SSE 20 60 0,0
16.01.2020 13:00:00 3,4 -5,4 4 2 8 5 SSE 20 60 -
16.01.2020 12:00:00 4,1 -5,7 4 2 9 5 SE 20 60 0,0
16.01.2020 11:00:00 1,9 -6,0 5 3 11 6 SSE 20 36 0,0
16.01.2020 10:00:00 -0,5 -6,7 6 4 12 6 ESE 20 0 0,0
16.01.2020 09:00:00 -0,7 -6,7 7 4 13 7 SE 20 0 0,0
16.01.2020 08:00:00 -0,7 -6,7 8 4 12 6 ESE 20 0 0,0
16.01.2020 07:00:00 -0,2 -6,4 5 3 10 6 E 20 0 -
16.01.2020 06:00:00 1,0 -6,0 5 3 10 6 ENE 20 0 0,0
16.01.2020 05:00:00 0,9 -6,0 5 3 23 12 SE 20 0 0,0
16.01.2020 04:00:00 3,9 -4,5 13 7 27 15 SSE 20 0 0,0
16.01.2020 03:00:00 3,9 -4,5 21 11 27 14 SE 20 0 0,0
16.01.2020 02:00:00 2,6 -5,4 4 2 20 11 E 20 0 0,0
16.01.2020 01:00:00 1,4 -7,5 3 2 11 6 ESE 20 0 -
16.01.2020 00:00:00 0,8 -9,0 5 3 11 6 SE 20 0 0,0
15.01.2020 23:00:00 0,5 -8,2 7 4 11 6 ESE 20 0 0,0
15.01.2020 22:00:00 2,9 -9,9 5 3 22 12 WSW 20 0 0,0
15.01.2020 21:00:00 3,6 -10,3 5 3 22 12 NNE 20 0 0,0
15.01.2020 20:00:00 1,1 -9,0 5 3 11 6 SE 20 0 0,0
15.01.2020 19:00:00 0,5 -8,2 7 4 10 5 ESE 20 0 -
15.01.2020 18:00:00 1,2 -8,6 5 3 10 5 SE 20 0 0,0
15.01.2020 17:00:00 2,1 -7,1 5 3 10 5 SE 20 30 0,0
15.01.2020 16:00:00 5,3 -6,7 3 2 13 7 SE 20 60 0,0
15.01.2020 15:00:00 4,8 -7,8 4 2 14 7 SE 20 59 0,0
15.01.2020 14:00:00 5,7 -8,6 3 2 10 6 E 20 60 0,0
15.01.2020 13:00:00 4,6 -8,6 5 3 12 7 NNE 20 57 -
15.01.2020 12:00:00 3,8 -9,9 3 2 14 7 ENE 20 18 0,0
15.01.2020 11:00:00 3,0 -9,4 3 2 10 5 NE 20 35 0,0
15.01.2020 10:00:00 1,3 -10,3 7 4 13 7 ESE 20 0 0,0
15.01.2020 09:00:00 0,2 -10,3 8 5 13 7 ESE 20 0 0,0
15.01.2020 08:00:00 0,6 -10,8 8 4 14 8 ESE 20 0 0,0
15.01.2020 07:00:00 0,3 -10,8 4 2 14 8 ESE 20 0 -
15.01.2020 06:00:00 0,5 -12,8 6 3 13 7 SE 20 0 0,0
15.01.2020 05:00:00 0,4 -13,9 6 3 13 7 SE 20 0 0,0
15.01.2020 04:00:00 -0,4 -13,9 6 4 10 5 SE 20 0 0,0
15.01.2020 03:00:00 0,0 -14,5 4 2 10 6 SE 20 0 0,0
15.01.2020 02:00:00 0,2 -14,5 5 3 10 6 ESE 20 0 0,0
15.01.2020 01:00:00 -0,1 -14,5 5 3 13 7 SE 20 0 -
15.01.2020 00:00:00 0,6 -13,9 5 3 13 7 ESE 20 0 0,0
14.01.2020 23:00:00 0,4 -13,9 6 3 14 7 SE 20 0 0,0
14.01.2020 22:00:00 1,5 -14,5 8 4 14 8 ESE 20 0 0,0
14.01.2020 21:00:00 1,8 -13,3 6 3 14 7 SE 20 0 0,0
14.01.2020 20:00:00 2,5 -12,8 6 3 13 7 ESE 20 0 0,0
14.01.2020 19:00:00 2,5 -12,2 5 3 11 6 E 20 0 -
14.01.2020 18:00:00 2,6 -12,2 3 2 11 6 SE 20 0 0,0
14.01.2020 17:00:00 4,9 -11,2 5 3 16 9 SE 20 28 0,0
14.01.2020 16:00:00 8,8 -10,3 4 2 15 8 E 20 60 0,0
14.01.2020 15:00:00 8,1 -9,9 4 2 9 5 SSE 20 60 0,0
14.01.2020 14:00:00 7,3 -9,9 4 2 8 5 ESE 20 60 0,0
14.01.2020 13:00:00 6,4 -11,7 4 2 11 6 SSE 20 60 -
14.01.2020 12:00:00 - - - - - - - - - -
14.01.2020 11:00:00 4,5 -12,2 3 2 12 7 SE 20 37 0,0
14.01.2020 10:00:00 1,2 -13,9 5 3 11 6 SSE 20 0 0,0
14.01.2020 09:00:00 -0,1 -13,3 6 3 13 7 SE 20 0 0,0
14.01.2020 08:00:00 1,1 -12,8 5 3 10 5 SSE 20 0 0,0
14.01.2020 07:00:00 1,4 -13,3 5 3 14 8 SE 20 0 -
14.01.2020 06:00:00 0,0 -9,9 8 4 15 8 SE 20 0 0,0
14.01.2020 05:00:00 -0,2 -11,7 8 4 15 8 ESE 20 0 0,0
14.01.2020 04:00:00 0,8 -11,7 6 3 16 8 E 20 0 0,0
14.01.2020 03:00:00 0,5 -12,8 9 5 16 9 ESE 20 0 0,0
14.01.2020 02:00:00 -0,8 -10,8 6 3 16 8 ESE 20 0 0,0
14.01.2020 01:00:00 -1,2 -9,0 10 5 16 9 ESE 19 0 -
14.01.2020 00:00:00 0,6 -12,2 6 3 16 9 ENE 20 0 0,0
13.01.2020 23:00:00 0,5 -12,8 6 3 13 7 E 20 0 0,0
13.01.2020 22:00:00 0,1 -11,7 6 3 13 7 ESE 20 0 0,0
13.01.2020 21:00:00 0,3 -11,7 6 3 11 6 E 20 0 0,0
13.01.2020 20:00:00 0,8 -11,2 6 3 12 6 ESE 20 0 0,0
13.01.2020 19:00:00 2,0 -10,8 4 2 13 7 E 20 0 -
13.01.2020 18:00:00 3,0 -10,3 4 2 12 7 NE 20 0 0,0
13.01.2020 17:00:00 4,7 -11,7 4 2 10 5 ENE 20 0 0,0
13.01.2020 16:00:00 5,6 -10,3 3 2 10 5 E 20 36 0,0
13.01.2020 15:00:00 8,7 -10,8 3 2 15 8 NNE 20 60 0,0
13.01.2020 14:00:00 8,5 -9,9 4 2 9 5 ESE 20 60 0,0
13.01.2020 13:00:00 7,0 -10,8 2 1 7 4 SSE 20 58 -
13.01.2020 12:00:00 7,3 -13,9 3 1 10 6 SE 20 60 0,0
13.01.2020 11:00:00 5,5 -13,9 4 2 10 5 SE 20 36 0,0
13.01.2020 10:00:00 2,9 -18,0 6 3 14 7 E 20 0 0,0
13.01.2020 09:00:00 2,2 -17,2 4 2 12 6 ESE 20 0 0,0
13.01.2020 08:00:00 0,7 -15,1 5 3 12 7 SE 20 0 0,0
13.01.2020 07:00:00 0,8 -15,1 7 4 13 7 ESE 20 0 -
13.01.2020 06:00:00 -0,1 -12,2 6 3 11 6 ESE 20 0 0,0
13.01.2020 05:00:00 -0,2 -9,0 6 4 13 7 SE 20 0 0,0
13.01.2020 04:00:00 -1,2 -7,5 6 3 13 7 ESE 17 0 0,0
13.01.2020 03:00:00 -1,6 -7,1 8 4 12 6 ESE 17 0 0,0
13.01.2020 02:00:00 -1,6 -6,4 7 4 12 7 SE 17 0 0,0
13.01.2020 01:00:00 -1,6 -6,4 7 4 12 6 ESE 16 0 -
13.01.2020 00:00:00 -1,2 -6,7 5 3 12 6 ESE 16 0 0,0
12.01.2020 23:00:00 -1,0 -7,1 6 3 11 6 ESE 17 0 0,0
12.01.2020 22:00:00 -0,6 -9,4 9 5 13 7 ESE 20 0 0,0
12.01.2020 21:00:00 0,2 -13,9 6 3 10 5 SE 20 0 0,0
12.01.2020 20:00:00 0,9 -14,5 3 2 10 6 SSE 18 0 0,0
12.01.2020 19:00:00 1,4 -15,1 9 5 14 7 S 20 0 -
12.01.2020 18:00:00 1,6 -14,5 7 4 14 8 S 20 0 0,0
12.01.2020 17:00:00 3,0 -14,5 7 4 10 5 S 20 23 0,0
12.01.2020 16:00:00 7,5 -10,8 4 2 8 4 SE 20 60 0,0
12.01.2020 15:00:00 9,8 -15,8 4 2 16 8 ESE 20 60 0,0
12.01.2020 14:00:00 9,7 -18,8 4 2 25 14 ESE 20 60 0,0
12.01.2020 13:00:00 7,3 -18,0 13 7 26 14 SSE 20 60 -
12.01.2020 12:00:00 6,9 -25,2 9 5 16 9 W 20 60 0,0
12.01.2020 11:00:00 4,2 -17,2 6 4 15 8 S 20 34 0,0
12.01.2020 10:00:00 1,1 -18,8 8 5 19 10 S 20 0 0,0
12.01.2020 09:00:00 -0,1 -18,0 8 4 15 8 SSW 20 0 0,0
12.01.2020 08:00:00 0,0 -15,8 7 4 16 8 S 20 0 0,0
12.01.2020 07:00:00 0,5 -17,2 6 4 26 14 S 20 0 -
12.01.2020 06:00:00 1,7 -13,3 9 5 19 10 SSE 14 0 0,2
12.01.2020 05:00:00 0,4 -11,2 8 5 21 12 SSW 4,4 0 0,0
12.01.2020 04:00:00 0,0 -16,5 6 3 18 10 S 17 0 0,0
12.01.2020 03:00:00 1,1 -13,9 7 4 19 10 S 10 0 0,0
12.01.2020 02:00:00 -0,5 -11,7 9 5 18 10 SSW 3,6 0 0,0
12.01.2020 01:00:00 -0,5 -12,2 9 5 17 9 S 2,2 0 -
12.01.2020 00:00:00 0,3 -15,8 10 6 23 13 S 15 0 0,0

tt = Température de l'air
td = dewpoint
ff = Vitesse du vent
fx = gusts
dd = Direction du vent
vv = visibility
sd = Ensoleillement
rr = Quantités de précipitations

stations d'obs. à proximité